Time;durP1;ratioP1;P1;durP2;ratioP2;P2;SDS_P1;SDS_P2;PMS_P1;PMS_P2;Temp;Humidity;BMP_temperature;BMP_pressure;BME280_temperature;BME280_humidity;BME280_pressure;Samples;Min_cycle;Max_cycle;Signal;HPM_P1;HPM_P2
2022/06/06 00:01:14;;;;;;;18.45;12.18;;;15.90;99.90;;;;;;4983328;28;20938;-61
2022/06/06 00:03:41;;;;;;;18.98;12.82;;;15.70;99.90;;;;;;4996312;28;20092;-62
2022/06/06 00:06:10;;;;;;;20.15;13.30;;;15.70;99.90;;;;;;4994551;28;20046;-62
2022/06/06 00:08:36;;;;;;;19.55;12.25;;;15.90;99.90;;;;;;4986427;28;20081;-61
2022/06/06 00:11:04;;;;;;;23.13;16.05;;;15.80;99.90;;;;;;5008023;28;20038;-62
2022/06/06 00:13:31;;;;;;;23.83;14.68;;;15.80;99.90;;;;;;4993222;28;20055;-61
2022/06/06 00:15:57;;;;;;;19.13;14.20;;;15.80;99.90;;;;;;4987460;28;20054;-63
2022/06/06 00:18:23;;;;;;;20.90;13.18;;;15.70;99.90;;;;;;4985796;28;20052;-63
2022/06/06 00:20:49;;;;;;;26.02;16.73;;;15.50;99.90;;;;;;5016588;28;20046;-64
2022/06/06 00:23:14;;;;;;;25.45;14.90;;;15.60;99.90;;;;;;5023384;28;20077;-64
2022/06/06 00:25:40;;;;;;;21.98;15.35;;;15.50;99.90;;;;;;5005858;28;20038;-64
2022/06/06 00:28:06;;;;;;;22.85;14.88;;;15.50;99.90;;;;;;5006427;28;20069;-63
2022/06/06 00:30:31;;;;;;;23.20;13.88;;;15.60;99.90;;;;;;5022757;28;20494;-63
2022/06/06 00:35:42;;;;;;;28.05;16.17;;;15.50;99.90;;;;;;5017030;28;20054;-61
2022/06/06 00:38:09;;;;;;;33.03;17.42;;;15.50;99.90;;;;;;5023439;28;20041;-61
2022/06/06 00:40:35;;;;;;;30.35;15.48;;;15.30;99.90;;;;;;4985986;28;20057;-60
2022/06/06 00:43:03;;;;;;;25.33;15.45;;;15.60;99.90;;;;;;5004276;28;20043;-60
2022/06/06 00:45:37;;;;;;;31.55;15.15;;;15.40;99.90;;;;;;5003434;28;20057;-60
2022/06/06 00:48:12;;;;;;;25.02;13.40;;;15.30;99.90;;;;;;5002398;28;20333;-60
2022/06/06 00:50:54;;;;;;;27.80;13.27;;;15.40;99.90;;;;;;5021385;28;20042;-59
2022/06/06 00:53:33;;;;;;;23.13;12.07;;;15.20;99.90;;;;;;5023064;28;20098;-60
2022/06/06 00:56:07;;;;;;;25.50;12.98;;;15.20;99.90;;;;;;5022037;28;20057;-59
2022/06/06 00:58:35;;;;;;;24.30;11.77;;;15.00;99.90;;;;;;5023578;28;20093;-59
2022/06/06 01:01:01;;;;;;;32.67;14.18;;;15.10;99.90;;;;;;5021862;28;20066;-60
2022/06/06 01:03:29;;;;;;;24.05;12.50;;;15.00;99.90;;;;;;5023599;28;20065;-59
2022/06/06 01:05:58;;;;;;;27.98;12.88;;;15.10;99.90;;;;;;5022379;28;20101;-58
2022/06/06 01:08:24;;;;;;;25.38;13.63;;;14.90;99.90;;;;;;5022835;28;20038;-59
2022/06/06 01:10:50;;;;;;;20.77;11.10;;;15.00;99.90;;;;;;5021019;28;20038;-57
2022/06/06 01:13:19;;;;;;;20.33;12.48;;;14.80;99.90;;;;;;5016245;28;20171;-58
2022/06/06 01:16:02;;;;;;;23.15;10.80;;;14.90;99.90;;;;;;5005071;28;20054;-58
2022/06/06 01:18:44;;;;;;;26.35;13.27;;;14.80;99.90;;;;;;5008390;28;20069;-58
2022/06/06 01:21:38;;;;;;;24.58;13.43;;;14.80;99.90;;;;;;5021843;28;20076;-59
2022/06/06 01:24:33;;;;;;;21.55;12.15;;;14.60;99.90;;;;;;5021893;28;20053;-59
2022/06/06 01:27:26;;;;;;;28.98;13.02;;;14.80;99.90;;;;;;5014437;28;20077;-58
2022/06/06 01:30:01;;;;;;;22.65;12.77;;;14.60;99.90;;;;;;5022400;28;20046;-58
2022/06/06 01:32:29;;;;;;;23.15;13.20;;;14.40;99.90;;;;;;5004102;28;20046;-58
2022/06/06 01:34:55;;;;;;;26.33;13.50;;;14.60;99.90;;;;;;5001756;28;20042;-58
2022/06/06 01:37:41;;;;;;;28.48;14.63;;;14.50;99.90;;;;;;5003326;28;20042;-57
2022/06/06 01:40:13;;;;;;;20.75;12.02;;;14.40;99.90;;;;;;5001825;28;20101;-58
2022/06/06 01:42:47;;;;;;;25.33;13.75;;;14.40;99.90;;;;;;5012035;28;20081;-58
2022/06/06 01:45:27;;;;;;;23.42;13.07;;;14.20;99.90;;;;;;5002512;28;20600;-58
2022/06/06 01:48:01;;;;;;;25.40;13.50;;;14.30;99.90;;;;;;5001386;28;20050;-58
2022/06/06 01:50:29;;;;;;;19.23;10.95;;;14.20;99.90;;;;;;5021629;28;20087;-59
2022/06/06 01:53:01;;;;;;;23.63;12.68;;;14.10;99.90;;;;;;5020069;28;20103;-58
2022/06/06 01:55:30;;;;;;;23.42;12.93;;;14.10;99.90;;;;;;5015763;28;20038;-58
2022/06/06 01:58:01;;;;;;;24.52;13.30;;;14.10;99.90;;;;;;5018989;28;20073;-58
2022/06/06 02:00:28;;;;;;;27.25;12.85;;;14.10;99.90;;;;;;5021072;28;20037;-57
2022/06/06 02:02:53;;;;;;;23.13;13.05;;;14.20;99.90;;;;;;5022507;28;20057;-59
2022/06/06 02:05:20;;;;;;;30.40;13.13;;;14.10;99.90;;;;;;5002695;28;20047;-59
2022/06/06 02:07:46;;;;;;;21.63;12.07;;;14.20;99.90;;;;;;5002495;28;20078;-56
2022/06/06 02:10:14;;;;;;;28.50;13.73;;;13.90;99.90;;;;;;5001429;28;20058;-59
2022/06/06 02:12:41;;;;;;;20.17;10.55;;;14.00;99.90;;;;;;5002085;28;20109;-59
2022/06/06 02:15:10;;;;;;;22.42;10.93;;;13.60;99.90;;;;;;5011464;28;20489;-60
2022/06/06 02:17:36;;;;;;;27.48;12.43;;;13.90;99.90;;;;;;5017252;28;20049;-59
2022/06/06 02:20:06;;;;;;;19.67;10.70;;;14.00;99.90;;;;;;5015340;28;20043;-59
2022/06/06 02:22:32;;;;;;;22.50;11.73;;;13.90;99.90;;;;;;5007617;28;20057;-58
2022/06/06 02:24:59;;;;;;;21.05;9.88;;;13.50;99.90;;;;;;5021114;28;20089;-59
2022/06/06 02:27:25;;;;;;;25.52;10.93;;;13.80;99.90;;;;;;5004975;28;20316;-59
2022/06/06 02:29:51;;;;;;;22.30;11.48;;;13.80;99.90;;;;;;5001659;28;20080;-59
2022/06/06 02:32:16;;;;;;;14.68;9.20;;;13.90;99.90;;;;;;4984650;28;20045;-59
2022/06/06 02:34:42;;;;;;;22.83;11.60;;;13.80;99.90;;;;;;5006170;28;20102;-59
2022/06/06 02:37:08;;;;;;;20.33;11.02;;;13.70;99.90;;;;;;5021805;28;20050;-59
2022/06/06 02:39:33;;;;;;;17.83;9.50;;;13.50;99.90;;;;;;5020090;28;20074;-59
2022/06/06 02:41:59;;;;;;;21.50;10.82;;;13.60;99.90;;;;;;5021482;28;20129;-59
2022/06/06 02:44:25;;;;;;;17.70;9.52;;;13.90;99.90;;;;;;5019921;28;20045;-58
2022/06/06 02:46:51;;;;;;;20.15;9.73;;;13.60;99.90;;;;;;5003647;28;20053;-59
2022/06/06 02:49:16;;;;;;;19.48;10.50;;;13.60;99.90;;;;;;5017883;28;20084;-58
2022/06/06 02:51:42;;;;;;;17.48;10.25;;;13.40;99.90;;;;;;5020052;28;20054;-58
2022/06/06 02:54:08;;;;;;;18.23;9.45;;;13.30;99.90;;;;;;5013945;28;20418;-58
2022/06/06 02:56:34;;;;;;;17.45;8.98;;;13.40;99.90;;;;;;5012824;28;20042;-59
2022/06/06 02:59:04;;;;;;;15.30;9.27;;;13.60;99.90;;;;;;5001830;28;20038;-58
2022/06/06 03:01:31;;;;;;;16.23;9.45;;;13.70;99.90;;;;;;5000428;28;20102;-58
2022/06/06 03:03:57;;;;;;;16.40;9.20;;;13.60;99.90;;;;;;5016657;28;20064;-58
2022/06/06 03:06:41;;;;;;;15.20;10.27;;;13.40;99.90;;;;;;5020765;28;20046;-60
2022/06/06 03:09:13;;;;;;;15.85;8.40;;;13.60;99.90;;;;;;5019727;28;20045;-58
2022/06/06 03:11:50;;;;;;;11.95;7.32;;;13.80;99.90;;;;;;5021257;28;20052;-58
2022/06/06 03:14:19;;;;;;;16.20;8.80;;;13.50;99.90;;;;;;5009298;28;20039;-58
2022/06/06 03:20:47;;;;;;;13.52;7.68;;;13.90;99.90;;;;;;5001426;28;20052;-57
2022/06/06 03:23:45;;;;;;;16.58;8.52;;;13.70;99.90;;;;;;5013107;28;20107;-58
2022/06/06 03:26:48;;;;;;;15.60;8.68;;;13.50;99.90;;;;;;4991855;28;20513;-58
2022/06/06 03:29:47;;;;;;;14.95;7.85;;;13.60;99.90;;;;;;5001261;28;20050;-58
2022/06/06 03:32:29;;;;;;;16.23;9.38;;;13.90;99.90;;;;;;5001162;28;20050;-57
2022/06/06 03:35:23;;;;;;;12.90;8.45;;;13.80;99.90;;;;;;5018379;28;20513;-58
2022/06/06 03:37:53;;;;;;;16.85;9.10;;;13.60;99.90;;;;;;5012000;28;20053;-58
2022/06/06 03:40:38;;;;;;;13.95;8.88;;;13.70;99.90;;;;;;5019503;28;20053;-58
2022/06/06 03:43:26;;;;;;;16.27;9.82;;;13.80;99.90;;;;;;5006752;28;20054;-58
2022/06/06 03:46:02;;;;;;;15.95;8.27;;;13.70;99.90;;;;;;5001092;28;20046;-58
2022/06/06 03:48:39;;;;;;;15.52;9.30;;;13.70;99.90;;;;;;5002335;28;20046;-58
2022/06/06 03:51:33;;;;;;;15.85;10.57;;;13.80;99.90;;;;;;5020336;28;20060;-58
2022/06/06 03:54:01;;;;;;;15.13;9.90;;;13.80;99.90;;;;;;5020834;28;20064;-58
2022/06/06 03:56:39;;;;;;;22.05;10.88;;;13.90;99.90;;;;;;4994941;28;20117;-59
2022/06/06 03:59:08;;;;;;;14.70;8.93;;;13.60;99.90;;;;;;5002848;28;20085;-59
2022/06/06 04:01:37;;;;;;;16.73;11.20;;;13.90;99.90;;;;;;4999856;28;20126;-58
2022/06/06 04:04:04;;;;;;;11.73;7.65;;;13.70;99.90;;;;;;5000352;28;20089;-58
2022/06/06 04:06:32;;;;;;;16.05;10.52;;;13.80;99.90;;;;;;5009491;28;20057;-58
2022/06/06 04:08:58;;;;;;;14.00;9.35;;;13.80;99.90;;;;;;5012682;28;20053;-59
2022/06/06 04:11:29;;;;;;;14.82;9.32;;;13.70;99.90;;;;;;5003972;28;20055;-58
2022/06/06 04:14:15;;;;;;;14.23;8.68;;;13.60;99.90;;;;;;4999143;28;20069;-58
2022/06/06 04:16:47;;;;;;;14.52;9.38;;;13.90;99.90;;;;;;5015412;28;20121;-58
2022/06/06 04:19:26;;;;;;;15.93;9.55;;;13.80;99.90;;;;;;5020039;28;20101;-59
2022/06/06 04:22:13;;;;;;;14.20;9.30;;;13.80;99.90;;;;;;5018688;28;20050;-59
2022/06/06 04:25:03;;;;;;;12.90;8.70;;;13.60;99.90;;;;;;5020504;28;20041;-59
2022/06/06 04:27:41;;;;;;;14.50;9.55;;;13.70;99.90;;;;;;5016811;28;20039;-59
2022/06/06 04:30:21;;;;;;;14.18;8.40;;;13.70;99.90;;;;;;5001595;28;20054;-58
2022/06/06 04:33:02;;;;;;;12.05;8.00;;;13.60;99.90;;;;;;5009838;28;20137;-59
2022/06/06 04:35:43;;;;;;;15.85;8.27;;;13.80;99.90;;;;;;4999360;28;20517;-58
2022/06/06 04:38:30;;;;;;;12.68;8.10;;;13.70;99.90;;;;;;5011383;28;20091;-59
2022/06/06 04:41:07;;;;;;;15.50;7.72;;;13.70;99.90;;;;;;4997593;28;20046;-59
2022/06/06 04:43:44;;;;;;;13.68;7.47;;;13.80;99.90;;;;;;4999346;28;20441;-59
2022/06/06 04:46:31;;;;;;;13.15;7.57;;;13.80;99.90;;;;;;5000479;28;20046;-59
2022/06/06 04:48:59;;;;;;;11.63;7.93;;;14.00;99.90;;;;;;5006264;28;20084;-58
2022/06/06 04:51:25;;;;;;;11.32;7.50;;;13.90;99.90;;;;;;5021942;28;20042;-59
2022/06/06 04:53:55;;;;;;;13.13;7.57;;;13.70;99.90;;;;;;5023744;28;20394;-59
2022/06/06 04:56:22;;;;;;;14.13;7.10;;;13.90;99.90;;;;;;5004228;28;20049;-58
2022/06/06 04:58:51;;;;;;;11.30;7.63;;;13.90;99.90;;;;;;5022925;28;20046;-59
2022/06/06 05:01:17;;;;;;;10.48;6.88;;;13.70;99.90;;;;;;5017255;28;20052;-59
2022/06/06 05:03:43;;;;;;;10.63;6.20;;;13.80;99.90;;;;;;5023123;28;20050;-58
2022/06/06 05:06:45;;;;;;;9.57;5.57;;;13.70;99.90;;;;;;5022987;28;20065;-58
2022/06/06 05:09:28;;;;;;;7.95;5.18;;;13.90;99.90;;;;;;5010452;28;20054;-58
2022/06/06 05:12:03;;;;;;;8.15;4.60;;;13.70;99.90;;;;;;5021514;28;20061;-58
2022/06/06 05:14:56;;;;;;;7.07;3.70;;;13.80;99.90;;;;;;5002554;28;20058;-58
2022/06/06 05:17:30;;;;;;;6.93;4.28;;;13.80;99.90;;;;;;5002301;28;20057;-59
2022/06/06 05:20:22;;;;;;;8.23;4.88;;;13.70;99.90;;;;;;5008411;28;20132;-55
2022/06/06 05:22:57;;;;;;;8.55;5.07;;;13.90;99.90;;;;;;5007775;28;20052;-58
2022/06/06 05:25:47;;;;;;;11.75;5.70;;;13.80;99.90;;;;;;5022803;28;20077;-58
2022/06/06 05:28:45;;;;;;;10.90;6.93;;;13.60;99.90;;;;;;5023117;28;20049;-58
2022/06/06 05:31:30;;;;;;;13.77;6.82;;;13.70;99.90;;;;;;5021404;28;20074;-58
2022/06/06 05:34:03;;;;;;;12.55;7.65;;;13.40;99.90;;;;;;5009262;28;20100;-58
2022/06/06 05:36:51;;;;;;;11.43;6.65;;;13.60;99.90;;;;;;5006641;28;20057;-58
2022/06/06 05:39:34;;;;;;;11.88;7.10;;;13.60;99.90;;;;;;5011434;28;20057;-58
2022/06/06 05:42:31;;;;;;;11.90;6.28;;;13.60;99.90;;;;;;5007462;28;20054;-58
2022/06/06 05:45:30;;;;;;;10.70;6.28;;;13.60;99.90;;;;;;4999434;28;20848;-57
2022/06/06 05:48:11;;;;;;;13.13;6.72;;;13.40;99.90;;;;;;4998195;28;20134;-57
2022/06/06 05:50:49;;;;;;;14.20;7.10;;;13.40;99.90;;;;;;4981929;28;20129;-57
2022/06/06 05:53:43;;;;;;;12.07;7.03;;;13.30;99.90;;;;;;4998698;28;20076;-57
2022/06/06 05:56:09;;;;;;;16.23;7.82;;;13.30;99.90;;;;;;4998123;28;20085;-60
2022/06/06 05:58:53;;;;;;;17.52;8.43;;;13.50;99.90;;;;;;4982262;28;20050;-58
2022/06/06 06:01:32;;;;;;;16.00;9.20;;;13.40;99.90;;;;;;4980452;28;20042;-58
2022/06/06 06:04:04;;;;;;;16.52;8.82;;;13.40;99.90;;;;;;5005972;28;20046;-58
2022/06/06 06:06:37;;;;;;;16.88;8.00;;;13.40;99.90;;;;;;5001208;28;20175;-58
2022/06/06 06:09:12;;;;;;;15.98;9.13;;;13.40;99.90;;;;;;5017694;28;20068;-57
2022/06/06 06:11:49;;;;;;;14.65;8.20;;;13.30;99.90;;;;;;5003869;28;20518;-58
2022/06/06 06:14:15;;;;;;;12.23;6.88;;;13.40;99.90;;;;;;4997979;28;20088;-57
2022/06/06 06:16:47;;;;;;;14.55;7.50;;;13.30;99.90;;;;;;4989768;28;20061;-57
2022/06/06 06:19:19;;;;;;;14.25;7.70;;;13.30;99.90;;;;;;5018799;28;20394;-57
2022/06/06 06:21:48;;;;;;;16.27;7.60;;;13.20;99.90;;;;;;5017407;28;20081;-57
2022/06/06 06:24:19;;;;;;;15.43;8.25;;;13.40;99.90;;;;;;5018752;28;20050;-58
2022/06/06 06:26:46;;;;;;;14.85;7.32;;;13.30;99.90;;;;;;5017282;28;20052;-58
2022/06/06 06:29:12;;;;;;;15.20;8.27;;;13.30;99.90;;;;;;5018215;28;20053;-57
2022/06/06 06:32:00;;;;;;;19.65;8.93;;;13.20;99.90;;;;;;5017841;28;20084;-57
2022/06/06 06:34:35;;;;;;;14.77;7.38;;;13.40;99.90;;;;;;5004860;28;20058;-58
2022/06/06 06:37:28;;;;;;;11.95;6.43;;;13.20;99.90;;;;;;4999204;28;20108;-57
2022/06/06 06:40:09;;;;;;;11.95;6.80;;;13.30;99.90;;;;;;5008674;28;20050;-57
2022/06/06 06:42:40;;;;;;;14.40;7.45;;;13.30;99.90;;;;;;5003367;28;20054;-57
2022/06/06 06:45:11;;;;;;;14.93;7.80;;;13.30;99.90;;;;;;5015176;28;20084;-58
2022/06/06 06:47:37;;;;;;;14.85;7.55;;;13.30;99.90;;;;;;5003297;28;20054;-57
2022/06/06 06:50:40;;;;;;;15.07;7.07;;;13.40;99.90;;;;;;5018346;28;20061;-57
2022/06/06 06:53:25;;;;;;;11.75;5.60;;;13.50;99.90;;;;;;5004880;28;20058;-57
2022/06/06 06:56:20;;;;;;;9.93;5.90;;;13.40;99.90;;;;;;5013866;28;20053;-57
2022/06/06 06:58:54;;;;;;;9.38;5.05;;;13.60;99.90;;;;;;4998694;28;20182;-57
2022/06/06 07:01:38;;;;;;;7.50;3.92;;;13.70;99.90;;;;;;4997215;28;20090;-58
2022/06/06 07:10:22;;;;;;;9.40;3.90;;;13.60;99.90;;;;;;5013036;28;20050;-58
2022/06/06 07:13:16;;;;;;;7.73;4.00;;;13.60;99.90;;;;;;5010657;28;20711;-58
2022/06/06 07:16:20;;;;;;;8.13;3.53;;;13.70;99.90;;;;;;5017671;28;20050;-58
2022/06/06 07:18:53;;;;;;;8.40;3.95;;;13.70;99.90;;;;;;4998170;28;20107;-58
2022/06/06 07:21:19;;;;;;;8.48;3.75;;;13.80;99.90;;;;;;5016977;28;20058;-58
2022/06/06 07:23:48;;;;;;;8.70;3.97;;;14.00;99.90;;;;;;5017643;28;20092;-57
2022/06/06 07:26:14;;;;;;;10.27;4.10;;;14.00;99.90;;;;;;5016317;28;20049;-58
2022/06/06 07:28:39;;;;;;;8.55;3.83;;;14.00;99.90;;;;;;4999531;28;20050;-58
2022/06/06 07:31:09;;;;;;;13.15;4.88;;;13.90;99.90;;;;;;4996647;28;20065;-58
2022/06/06 07:34:07;;;;;;;9.57;3.83;;;13.90;99.90;;;;;;4997985;28;20062;-58
2022/06/06 07:36:45;;;;;;;10.73;4.00;;;13.90;99.90;;;;;;4994078;28;20054;-58
2022/06/06 07:39:34;;;;;;;9.93;3.55;;;13.80;99.90;;;;;;5000687;28;20050;-59
2022/06/06 07:42:12;;;;;;;6.85;3.53;;;13.80;99.90;;;;;;4997449;28;20059;-59
2022/06/06 07:45:02;;;;;;;8.65;3.45;;;13.90;99.90;;;;;;5012714;28;20102;-58
2022/06/06 07:47:40;;;;;;;11.95;3.88;;;13.80;99.90;;;;;;5004481;28;20686;-58
2022/06/06 07:50:23;;;;;;;7.07;3.58;;;13.80;99.90;;;;;;5005393;28;20047;-58
2022/06/06 07:52:55;;;;;;;9.73;4.00;;;13.90;99.90;;;;;;4999224;28;20050;-59
2022/06/06 07:55:33;;;;;;;11.25;3.75;;;13.90;99.90;;;;;;5016927;28;20054;-58
2022/06/06 07:58:11;;;;;;;8.77;4.03;;;14.00;99.90;;;;;;4997832;28;20061;-59
2022/06/06 08:00:38;;;;;;;9.00;4.32;;;14.00;99.90;;;;;;5002490;28;20049;-57
2022/06/06 08:03:37;;;;;;;11.00;4.80;;;14.00;99.90;;;;;;5017498;28;20049;-59
2022/06/06 08:06:22;;;;;;;9.10;3.78;;;14.20;99.90;;;;;;5016581;28;20161;-58
2022/06/06 08:08:51;;;;;;;7.18;3.75;;;14.30;99.90;;;;;;4975098;28;20085;-58
2022/06/06 08:11:21;;;;;;;8.00;3.97;;;14.50;99.90;;;;;;5013938;28;20081;-58
2022/06/06 08:14:02;;;;;;;11.02;3.72;;;14.70;99.90;;;;;;4997577;28;20054;-58
2022/06/06 08:16:36;;;;;;;10.60;4.70;;;15.00;99.90;;;;;;4997741;28;20529;-58
2022/06/06 08:19:26;;;;;;;8.38;4.13;;;15.10;99.90;;;;;;4997241;28;20050;-58
2022/06/06 08:21:52;;;;;;;7.88;3.55;;;15.00;99.90;;;;;;5006604;28;20054;-58
2022/06/06 08:24:26;;;;;;;7.70;3.42;;;14.90;99.90;;;;;;5013687;28;20120;-59
2022/06/06 08:26:54;;;;;;;8.13;4.10;;;14.90;99.90;;;;;;5016462;28;20050;-59
2022/06/06 08:29:22;;;;;;;9.25;3.78;;;14.90;99.90;;;;;;5000731;28;20053;-58
2022/06/06 08:31:48;;;;;;;8.25;3.58;;;14.90;99.90;;;;;;5000853;28;20038;-58
2022/06/06 08:34:14;;;;;;;7.70;3.28;;;14.90;99.90;;;;;;5000017;28;20154;-58
2022/06/06 08:36:48;;;;;;;8.63;3.72;;;14.90;99.90;;;;;;5001201;28;20121;-58
2022/06/06 08:39:35;;;;;;;7.40;3.13;;;15.10;99.90;;;;;;4982011;28;20596;-58
2022/06/06 08:42:39;;;;;;;6.20;2.72;;;15.30;99.90;;;;;;4982909;28;20518;-59
2022/06/06 08:45:08;;;;;;;6.13;2.72;;;15.60;99.90;;;;;;5000791;28;20050;-59
2022/06/06 08:47:34;;;;;;;6.30;2.90;;;15.40;99.90;;;;;;5010992;28;20426;-58
2022/06/06 08:53:34;;;;;;;8.25;3.70;;;15.00;99.90;;;;;;5001455;28;20075;-58
2022/06/06 08:56:18;;;;;;;7.45;3.70;;;14.70;99.90;;;;;;4982627;28;20053;-59
2022/06/06 08:59:15;;;;;;;8.70;4.20;;;14.70;99.90;;;;;;5008322;28;20137;-59
2022/06/06 09:01:51;;;;;;;8.00;3.72;;;14.80;99.90;;;;;;4948739;28;20466;-58
2022/06/06 09:04:48;;;;;;;8.32;4.00;;;14.80;99.90;;;;;;5005832;28;20520;-58
2022/06/06 09:07:46;;;;;;;7.10;3.67;;;14.60;99.90;;;;;;5017107;28;20049;-58
2022/06/06 09:10:31;;;;;;;9.93;5.30;;;14.60;99.90;;;;;;4985243;28;20057;-58
2022/06/06 09:13:15;;;;;;;9.50;4.60;;;14.50;99.90;;;;;;4999014;28;20065;-58
2022/06/06 09:16:15;;;;;;;9.77;5.20;;;14.60;99.90;;;;;;5000569;28;20058;-58
2022/06/06 09:19:01;;;;;;;12.50;6.30;;;14.70;99.90;;;;;;4999121;28;20042;-58
2022/06/06 09:21:26;;;;;;;11.93;6.55;;;14.80;99.90;;;;;;4999147;28;20050;-62
2022/06/06 09:24:19;;;;;;;9.38;5.97;;;15.30;99.90;;;;;;5012505;28;20058;-59
2022/06/06 09:26:53;;;;;;;10.85;6.10;;;15.40;99.90;;;;;;5003055;28;20081;-58
2022/06/06 09:29:35;;;;;;;11.80;6.32;;;15.80;99.90;;;;;;5001754;28;20534;-59
2022/06/06 09:32:20;;;;;;;10.13;5.60;;;15.90;99.90;;;;;;5019671;28;20129;-58
2022/06/06 09:35:08;;;;;;;9.57;4.93;;;15.90;99.90;;;;;;4971848;28;20054;-59
2022/06/06 09:37:37;;;;;;;9.57;4.68;;;16.10;99.90;;;;;;5010129;28;20076;-59
2022/06/06 09:40:20;;;;;;;8.27;4.55;;;16.20;99.90;;;;;;5016131;28;20042;-58
2022/06/06 09:43:28;;;;;;;10.13;4.50;;;16.40;99.90;;;;;;5010246;28;20084;-59
2022/06/06 09:45:59;;;;;;;8.75;4.72;;;16.60;99.90;;;;;;5000108;28;20042;-59
2022/06/06 09:48:45;;;;;;;7.95;4.10;;;16.90;99.90;;;;;;5016199;28;20041;-59
2022/06/06 09:51:35;;;;;;;9.68;4.60;;;16.80;99.90;;;;;;5000861;28;20077;-59
2022/06/06 10:00:52;;;;;;;7.43;3.53;;;16.90;99.90;;;;;;5001687;28;20042;-58
2022/06/06 10:03:52;;;;;;;10.15;4.10;;;17.10;99.90;;;;;;4999430;28;20050;-58
2022/06/06 10:06:21;;;;;;;8.60;3.40;;;17.20;99.90;;;;;;4962171;28;20072;-58
2022/06/06 10:08:52;;;;;;;10.07;3.35;;;17.20;99.90;;;;;;5017057;28;20108;-58
2022/06/06 10:11:34;;;;;;;11.32;3.63;;;17.30;99.90;;;;;;5011457;28;20942;-56
2022/06/06 10:14:19;;;;;;;8.57;3.23;;;17.60;99.90;;;;;;5011054;28;20073;-58
2022/06/06 10:16:59;;;;;;;9.07;3.53;;;17.70;99.90;;;;;;5021211;28;20284;-58
2022/06/06 10:19:46;;;;;;;7.38;2.70;;;17.80;99.90;;;;;;5021928;28;20358;-58
2022/06/06 10:22:33;;;;;;;8.75;2.25;;;17.50;99.90;;;;;;5020318;28;20071;-58
2022/06/06 10:25:08;;;;;;;6.80;2.22;;;17.40;99.90;;;;;;5021280;28;20045;-58
2022/06/06 10:28:02;;;;;;;7.97;2.30;;;17.30;99.90;;;;;;5018934;28;20034;-59
2022/06/06 10:30:57;;;;;;;5.10;1.67;;;17.60;99.90;;;;;;5007898;28;20049;-57
2022/06/06 10:33:31;;;;;;;10.00;2.13;;;17.80;99.90;;;;;;4999806;28;20100;-58
2022/06/06 10:36:14;;;;;;;9.30;2.05;;;18.00;99.90;;;;;;5011961;28;20045;-58
2022/06/06 10:39:08;;;;;;;7.18;2.10;;;17.90;99.90;;;;;;5013577;28;20062;-58
2022/06/06 10:42:13;;;;;;;7.28;2.08;;;17.80;99.90;;;;;;5005403;28;20090;-59
2022/06/06 10:45:09;;;;;;;5.88;1.73;;;17.70;99.90;;;;;;5011588;28;20072;-58
2022/06/06 10:48:06;;;;;;;8.05;2.38;;;17.60;99.90;;;;;;5019139;28;20069;-59
2022/06/06 10:51:36;;;;;;;8.32;1.45;;;17.90;99.90;;;;;;5021410;28;20111;-59
2022/06/06 10:54:06;;;;;;;7.32;1.98;;;18.10;99.90;;;;;;5001472;28;20054;-59
2022/06/06 10:56:53;;;;;;;7.78;1.77;;;18.30;99.90;;;;;;5000826;28;20058;-58
2022/06/06 10:59:39;;;;;;;8.52;1.90;;;18.30;99.90;;;;;;5021100;28;20038;-58
2022/06/06 11:02:11;;;;;;;6.85;1.35;;;18.60;99.90;;;;;;5003401;28;20101;-58
2022/06/06 11:04:48;;;;;;;6.65;1.40;;;18.40;99.90;;;;;;5019650;28;20049;-58
2022/06/06 11:07:29;;;;;;;7.80;1.67;;;18.30;99.90;;;;;;4985310;28;20053;-58
2022/06/06 11:10:23;;;;;;;9.00;1.50;;;18.30;99.90;;;;;;5002010;28;20046;-60
2022/06/06 11:13:14;;;;;;;6.03;1.60;;;18.30;99.90;;;;;;5015753;28;20065;-58
2022/06/06 11:16:04;;;;;;;6.57;1.50;;;18.30;99.90;;;;;;5021214;28;20046;-58
2022/06/06 11:18:29;;;;;;;5.75;1.60;;;18.40;99.90;;;;;;5013351;28;20049;-57
2022/06/06 11:21:04;;;;;;;6.57;1.15;;;18.10;99.90;;;;;;5013255;28;20058;-57
2022/06/06 11:23:30;;;;;;;7.93;2.35;;;18.30;99.90;;;;;;5016236;28;20056;-58
2022/06/06 11:25:58;;;;;;;7.88;1.55;;;18.60;99.90;;;;;;5017091;28;20046;-58
2022/06/06 11:28:45;;;;;;;4.82;1.48;;;18.60;99.90;;;;;;5001404;28;20057;-58
2022/06/06 11:31:14;;;;;;;8.70;2.30;;;18.60;99.90;;;;;;5000061;28;20097;-57
2022/06/06 11:34:01;;;;;;;6.70;1.80;;;18.60;99.90;;;;;;5011897;28;20049;-59
2022/06/06 11:36:46;;;;;;;6.65;1.58;;;18.50;99.90;;;;;;5020795;28;20502;-58
2022/06/06 11:39:30;;;;;;;7.07;1.50;;;18.50;99.90;;;;;;5019084;28;20053;-58
2022/06/06 11:42:35;;;;;;;4.90;1.25;;;18.20;99.90;;;;;;5008431;28;20070;-58
2022/06/06 11:45:32;;;;;;;5.22;1.55;;;18.00;99.90;;;;;;4938855;28;20058;-57
2022/06/06 11:48:36;;;;;;;5.70;1.70;;;17.90;99.90;;;;;;5019150;28;20740;-57
2022/06/06 11:51:39;;;;;;;6.93;1.50;;;17.70;99.90;;;;;;5015068;28;20054;-58
2022/06/06 11:54:23;;;;;;;6.55;1.80;;;17.80;99.90;;;;;;5001098;28;20085;-58
2022/06/06 11:57:31;;;;;;;6.20;1.60;;;17.70;99.90;;;;;;5009655;28;20061;-58
2022/06/06 12:00:14;;;;;;;8.27;1.42;;;17.60;99.90;;;;;;5020042;28;20122;-58
2022/06/06 12:02:50;;;;;;;7.60;2.00;;;17.70;99.90;;;;;;5024572;28;20094;-57
2022/06/06 12:05:25;;;;;;;8.10;2.00;;;17.50;99.90;;;;;;5022891;28;20058;-58
2022/06/06 12:08:22;;;;;;;8.35;1.98;;;17.80;99.90;;;;;;5022145;28;20835;-58
2022/06/06 12:11:12;;;;;;;7.03;1.80;;;17.70;99.90;;;;;;5005705;28;20038;-58
2022/06/06 12:14:17;;;;;;;6.43;1.55;;;18.00;99.90;;;;;;5022086;28;20062;-57
2022/06/06 12:17:20;;;;;;;6.18;1.63;;;18.00;99.90;;;;;;5023628;28;20065;-58
2022/06/06 12:19:58;;;;;;;6.35;1.60;;;17.90;99.90;;;;;;5024429;28;20094;-57
2022/06/06 12:23:01;;;;;;;5.80;1.70;;;17.80;99.90;;;;;;5021788;28;20089;-56
2022/06/06 12:25:51;;;;;;;10.63;1.60;;;18.00;99.90;;;;;;5014617;28;20441;-59
2022/06/06 12:28:32;;;;;;;8.88;1.60;;;17.50;99.90;;;;;;4986626;28;20148;-58
2022/06/06 12:31:16;;;;;;;10.18;2.88;;;17.30;99.90;;;;;;5002934;28;20470;-56
2022/06/06 12:34:10;;;;;;;7.70;1.95;;;17.10;99.90;;;;;;5003837;28;20042;-58
2022/06/06 12:36:50;;;;;;;6.93;2.03;;;17.10;99.90;;;;;;5004436;28;20066;-58
2022/06/06 12:39:36;;;;;;;7.82;2.38;;;17.10;99.90;;;;;;5002764;28;20042;-56
2022/06/06 12:42:27;;;;;;;8.27;1.90;;;17.20;99.90;;;;;;5003476;28;20050;-58
2022/06/06 12:45:26;;;;;;;6.95;1.70;;;17.40;99.90;;;;;;5017709;28;20070;-58
2022/06/06 12:48:10;;;;;;;8.10;1.90;;;17.40;99.90;;;;;;5022224;28;20060;-58
2022/06/06 12:50:42;;;;;;;11.88;1.90;;;17.50;99.90;;;;;;5023464;28;20106;-59
2022/06/06 12:53:38;;;;;;;9.73;2.78;;;17.50;99.90;;;;;;5022837;28;20060;-58
2022/06/06 12:56:20;;;;;;;7.35;2.28;;;17.40;99.90;;;;;;5021683;28;20049;-58
2022/06/06 12:59:20;;;;;;;7.90;2.00;;;17.10;99.90;;;;;;5023481;28;20061;-58
2022/06/06 13:02:33;;;;;;;5.70;1.80;;;16.80;99.90;;;;;;5022674;28;20058;-57
2022/06/06 13:05:19;;;;;;;7.07;2.35;;;16.60;99.90;;;;;;4960487;29;20050;-58
2022/06/06 13:08:13;;;;;;;8.48;2.70;;;16.50;99.90;;;;;;4962243;29;20094;-59
2022/06/06 13:10:53;;;;;;;8.43;3.15;;;16.10;99.90;;;;;;5000051;28;20053;-58
2022/06/06 13:13:25;;;;;;;7.55;3.10;;;15.80;99.90;;;;;;5002487;28;20091;-58
2022/06/06 13:16:14;;;;;;;8.00;3.25;;;15.60;99.90;;;;;;5003411;28;20092;-57
2022/06/06 13:19:10;;;;;;;7.43;2.83;;;15.60;99.90;;;;;;5002852;28;20050;-58
2022/06/06 13:21:54;;;;;;;9.50;2.78;;;15.70;99.90;;;;;;5001800;28;20081;-58
2022/06/06 13:24:31;;;;;;;7.85;2.80;;;15.60;99.90;;;;;;5003397;28;20593;-58
2022/06/06 13:27:28;;;;;;;7.65;2.95;;;15.70;99.90;;;;;;5016680;28;20057;-58
2022/06/06 13:29:54;;;;;;;9.52;3.58;;;15.70;99.90;;;;;;5002106;28;20066;-58
2022/06/06 13:32:33;;;;;;;9.52;3.30;;;15.50;99.90;;;;;;5003404;28;20046;-58
2022/06/06 13:35:40;;;;;;;7.22;3.70;;;15.40;99.90;;;;;;5016850;28;20038;-58
2022/06/06 13:38:13;;;;;;;9.30;3.33;;;15.10;99.90;;;;;;4977712;28;20054;-58
2022/06/06 13:40:47;;;;;;;4.80;1.77;;;15.00;99.90;;;;;;5007697;28;20062;-58
2022/06/06 13:43:50;;;;;;;5.80;1.70;;;14.40;99.90;;;;;;5001504;28;20046;-58
2022/06/06 13:46:21;;;;;;;6.05;1.85;;;14.10;99.90;;;;;;4985143;28;20042;-58
2022/06/06 13:49:07;;;;;;;9.27;2.60;;;14.00;99.90;;;;;;4989651;28;20126;-56
2022/06/06 13:52:11;;;;;;;7.07;2.10;;;13.80;99.90;;;;;;5020911;28;20041;-57
2022/06/06 13:54:38;;;;;;;9.40;3.72;;;13.70;99.90;;;;;;5021582;28;20057;-58
2022/06/06 13:57:19;;;;;;;8.40;3.08;;;13.90;99.90;;;;;;5019486;28;20056;-57
2022/06/06 13:59:55;;;;;;;8.35;3.35;;;13.80;99.90;;;;;;5018863;28;20041;-57
2022/06/06 14:02:38;;;;;;;8.20;4.68;;;13.70;99.90;;;;;;5019254;28;20070;-58